메인 페이지
METAR-TAF:

METAR-TAF

공항 :

방기 음포코 국제공항

방기, 중앙아프리카공화국

위도: 04-24N, 경도: 018-31E, 고도: 365m

현재 날씨관측

예보는 30분 전, 09:00시(UTC)에 발표되었습니다.
4kt
온도 31°C
습도 59%
기압 1011 hPa
시정 10km 이상
고도 1600ft 상공 구름 조금

METAR: FEFF 200900Z 26004KT 9999 FEW016 31/22 Q1011 NOSIG

시각: 10:30 (09:30 UTC)

예보

예보는 4 시간 30분 전, 05:00시(UTC)에 발표되었습니다.
예보 대상 시간: 20일 06시부터 21일 12시까지 (UTC)
여러 방향의 바람 2kt
시정: 3000m
고도 800ft 상공 구름 조금
박무
전환 중
20일 07시부터 20일 09시까지 (UTC)
시정 10km 이상
확률 30% :
일시적
20일 14시부터 20일 19시까지 (UTC)
여러 방향의 바람 13kt
고도 1300ft 상공 구름 많음
고도 4000ft 상공 구름 조금, 적란운.
뇌우

TAF: FEFF 200500Z 2006/2112 VRB02KT 3000 BR FEW008 BECMG 2007/2009 9999 NSW PROB30 TEMPO 2014/2019 VRB13KT TS BKN013 FEW040CB

4,000개 이상의 공항 관측 자료 및 예보 (METAR 및 TAF 보고).

지도상에서 검색 가능한 기상관측소가 노란 점과 빨간 점으로 표시되어 있습니다.

기상관측소 명을 보려면 표시 위로 마우스를 이동하세요.

날씨 관측과 예보를 보려면 클릭하세요.

지도 변경 : 확대하려면 엑스 표시가 있는 녹색 버튼, 축소하려면 빼기 표시가 있는 녹색 버튼, 다음 페이지의 지도를 보려면 녹색 화살표를 클릭하세요.


METAR-TAF: